createdAt,value
2023-04-27T00:01:01.064Z,21.87
2023-04-27T00:03:28.398Z,21.88
2023-04-27T00:05:55.323Z,21.88
2023-04-27T00:08:22.030Z,21.89
2023-04-27T00:10:48.572Z,21.89
2023-04-27T00:13:15.013Z,21.89
2023-04-27T00:15:41.694Z,21.89
2023-04-27T00:18:08.350Z,21.89
2023-04-27T00:20:34.898Z,21.88
2023-04-27T00:23:01.332Z,21.89
2023-04-27T00:25:27.925Z,21.89
2023-04-27T00:27:54.378Z,21.90
2023-04-27T00:30:21.085Z,21.90
2023-04-27T00:32:47.572Z,21.89
2023-04-27T00:35:16.364Z,21.91
2023-04-27T00:37:42.907Z,21.89
2023-04-27T00:40:09.826Z,21.90
2023-04-27T00:42:36.789Z,21.89
2023-04-27T00:45:05.932Z,21.90
2023-04-27T00:47:33.336Z,21.89
2023-04-27T00:49:59.911Z,21.90
2023-04-27T00:52:26.674Z,21.90
2023-04-27T00:54:53.227Z,21.89
2023-04-27T00:57:20.800Z,21.89
2023-04-27T00:59:47.467Z,21.89
2023-04-27T01:02:14.119Z,21.89
2023-04-27T01:04:41.495Z,21.89
2023-04-27T01:07:08.158Z,21.89
2023-04-27T01:09:34.734Z,21.90
2023-04-27T01:12:01.627Z,21.89
2023-04-27T01:14:28.151Z,21.89
2023-04-27T01:16:54.731Z,21.89
2023-04-27T01:19:21.235Z,21.91
2023-04-27T01:21:50.145Z,21.89
2023-04-27T01:24:16.888Z,21.89
2023-04-27T01:26:43.449Z,21.90
2023-04-27T01:29:10.150Z,21.89
2023-04-27T01:31:36.812Z,21.89
2023-04-27T01:34:03.761Z,21.89
2023-04-27T01:36:31.781Z,21.90
2023-04-27T01:38:58.250Z,21.89
2023-04-27T01:41:24.863Z,21.89
2023-04-27T01:43:51.309Z,21.89
2023-04-27T01:46:17.839Z,21.88
2023-04-27T01:48:44.371Z,21.88
2023-04-27T01:51:11.082Z,21.88
2023-04-27T01:53:37.642Z,21.87
2023-04-27T01:56:04.476Z,21.88
2023-04-27T01:58:32.957Z,21.89
2023-04-27T02:00:59.511Z,21.87
2023-04-27T02:03:26.219Z,21.88
2023-04-27T02:05:52.941Z,21.88
2023-04-27T02:08:19.577Z,21.88
2023-04-27T02:10:46.279Z,21.88
2023-04-27T02:13:12.857Z,21.88
2023-04-27T02:15:39.400Z,21.87
2023-04-27T02:18:06.140Z,21.87
2023-04-27T02:20:33.222Z,21.87
2023-04-27T02:23:02.213Z,21.87
2023-04-27T02:25:28.870Z,21.87
2023-04-27T02:27:55.665Z,21.87
2023-04-27T02:30:22.815Z,21.87
2023-04-27T02:32:50.033Z,21.87
2023-04-27T02:35:16.764Z,21.86
2023-04-27T02:37:43.328Z,21.86
2023-04-27T02:40:10.330Z,21.87
2023-04-27T02:42:38.817Z,21.86
2023-04-27T02:45:08.580Z,21.87
2023-04-27T02:47:36.402Z,21.85
2023-04-27T02:50:03.166Z,21.86
2023-04-27T02:52:33.833Z,21.86
2023-04-27T02:55:00.377Z,21.86
2023-04-27T02:57:27.844Z,21.85
2023-04-27T02:59:54.327Z,21.86
2023-04-27T03:02:20.919Z,21.86
2023-04-27T03:04:47.627Z,21.85
2023-04-27T03:07:14.142Z,21.85
2023-04-27T03:09:40.686Z,21.86
2023-04-27T03:12:07.285Z,21.85
2023-04-27T03:14:33.798Z,21.85
2023-04-27T03:17:00.846Z,21.84
2023-04-27T03:19:27.456Z,21.84
2023-04-27T03:21:54.075Z,21.84
2023-04-27T03:24:21.754Z,21.84
2023-04-27T03:26:49.482Z,21.84
2023-04-27T03:29:16.228Z,21.84
2023-04-27T03:31:42.880Z,21.84
2023-04-27T03:34:09.428Z,21.84
2023-04-27T03:36:38.630Z,21.84
2023-04-27T03:39:05.139Z,21.84
2023-04-27T03:41:31.591Z,21.84
2023-04-27T03:43:58.110Z,21.84
2023-04-27T03:46:24.698Z,21.83
2023-04-27T03:48:51.226Z,21.84
2023-04-27T03:51:18.325Z,21.83
2023-04-27T03:53:46.437Z,21.84
2023-04-27T03:56:13.503Z,21.83
2023-04-27T03:58:40.019Z,21.82
2023-04-27T04:01:16.684Z,21.83
2023-04-27T04:03:43.619Z,21.83
2023-04-27T04:06:12.036Z,21.82
2023-04-27T04:08:39.280Z,21.83
2023-04-27T04:11:05.986Z,21.82
2023-04-27T04:13:36.003Z,21.81
2023-04-27T04:16:03.899Z,21.81
2023-04-27T04:18:30.594Z,21.81
2023-04-27T04:20:57.832Z,21.81
2023-04-27T04:23:24.572Z,21.81
2023-04-27T04:25:51.179Z,21.81
2023-04-27T04:28:18.199Z,21.80
2023-04-27T04:30:45.137Z,21.80
2023-04-27T04:33:11.923Z,21.79
2023-04-27T04:35:39.301Z,21.79
2023-04-27T04:38:06.008Z,21.78
2023-04-27T04:40:32.656Z,21.78
2023-04-27T04:42:59.096Z,21.77
2023-04-27T04:45:26.018Z,21.78
2023-04-27T04:47:54.318Z,21.77
2023-04-27T04:50:21.291Z,21.76
2023-04-27T04:52:47.753Z,21.75
2023-04-27T04:55:15.055Z,21.76
2023-04-27T04:57:41.556Z,21.76
2023-04-27T05:00:12.766Z,21.74
2023-04-27T05:02:42.863Z,21.75
2023-04-27T05:05:09.938Z,21.74
2023-04-27T05:07:36.505Z,21.73
2023-04-27T05:10:03.495Z,21.73
2023-04-27T05:12:30.126Z,21.72
2023-04-27T05:14:56.753Z,21.72
2023-04-27T05:17:23.289Z,21.71
2023-04-27T05:19:49.859Z,21.72
2023-04-27T05:22:16.357Z,21.71
2023-04-27T05:24:43.038Z,21.71
2023-04-27T05:27:09.514Z,21.71
2023-04-27T05:29:36.064Z,21.69
2023-04-27T05:32:03.209Z,21.70
2023-04-27T05:34:29.825Z,21.70
2023-04-27T05:36:56.275Z,21.68
2023-04-27T05:39:22.721Z,21.68
2023-04-27T05:41:49.232Z,21.67
2023-04-27T05:44:15.749Z,21.68
2023-04-27T05:46:42.220Z,21.67
2023-04-27T05:49:08.675Z,21.66
2023-04-27T05:51:35.387Z,21.67
2023-04-27T05:54:02.075Z,21.66
2023-04-27T05:56:28.786Z,21.66
2023-04-27T05:58:55.336Z,21.65
2023-04-27T06:01:21.980Z,21.65
2023-04-27T06:03:48.675Z,21.64
2023-04-27T06:06:15.298Z,21.65
2023-04-27T06:08:42.116Z,21.64
2023-04-27T06:11:08.618Z,21.63
2023-04-27T06:13:35.105Z,21.63
2023-04-27T06:16:01.914Z,21.63
2023-04-27T06:18:28.564Z,21.63
2023-04-27T06:21:00.448Z,21.63
2023-04-27T06:23:27.192Z,21.62
2023-04-27T06:25:53.658Z,21.62
2023-04-27T06:28:20.596Z,21.62
2023-04-27T06:30:47.317Z,21.62
2023-04-27T06:33:13.778Z,21.62
2023-04-27T06:35:41.236Z,21.62
2023-04-27T06:38:08.162Z,21.61
2023-04-27T06:40:37.391Z,21.61
2023-04-27T06:43:03.965Z,21.61
2023-04-27T06:45:30.581Z,21.61
2023-04-27T06:47:57.114Z,21.60
2023-04-27T06:50:23.683Z,21.61
2023-04-27T06:52:50.169Z,21.61
2023-04-27T06:55:16.620Z,21.60
2023-04-27T06:57:43.208Z,21.61
2023-04-27T07:00:11.645Z,21.61
2023-04-27T07:02:38.155Z,21.61
2023-04-27T07:05:04.914Z,21.61
2023-04-27T07:07:31.450Z,21.62
2023-04-27T07:09:58.017Z,21.62
2023-04-27T07:12:24.820Z,21.62
2023-04-27T07:14:55.315Z,21.63
2023-04-27T07:17:22.049Z,21.63
2023-04-27T07:19:48.596Z,21.62
2023-04-27T07:22:16.068Z,21.64
2023-04-27T07:24:42.622Z,21.64
2023-04-27T07:27:10.199Z,21.64
2023-04-27T07:29:37.867Z,21.65
2023-04-27T07:32:08.821Z,21.66
2023-04-27T07:34:48.913Z,21.66
2023-04-27T07:37:19.761Z,21.65
2023-04-27T07:39:46.770Z,21.66
2023-04-27T07:42:13.397Z,21.67
2023-04-27T07:44:40.798Z,21.67
2023-04-27T07:47:07.592Z,21.68
2023-04-27T07:49:35.481Z,21.68
2023-04-27T07:52:02.033Z,21.67
2023-04-27T07:54:28.611Z,21.69
2023-04-27T07:56:55.286Z,21.69
2023-04-27T07:59:21.849Z,21.69
2023-04-27T08:01:48.429Z,21.71
2023-04-27T08:04:16.219Z,21.71
2023-04-27T08:06:43.707Z,21.72
2023-04-27T08:09:11.302Z,21.73
2023-04-27T08:11:38.134Z,21.74
2023-04-27T08:14:04.645Z,21.74
2023-04-27T08:16:31.297Z,21.75
2023-04-27T08:18:59.253Z,21.75
2023-04-27T08:21:28.548Z,21.77
2023-04-27T08:23:55.181Z,21.77
2023-04-27T08:26:23.417Z,21.78
2023-04-27T08:28:50.998Z,21.79
2023-04-27T08:31:17.569Z,21.80
2023-04-27T08:33:44.119Z,21.81
2023-04-27T08:36:10.898Z,21.82
2023-04-27T08:38:37.453Z,21.81
2023-04-27T08:41:14.497Z,21.84
2023-04-27T08:43:49.739Z,21.84
2023-04-27T08:46:21.403Z,21.85
2023-04-27T08:48:51.627Z,21.86
2023-04-27T08:51:18.744Z,21.86
2023-04-27T08:54:03.198Z,21.88
2023-04-27T08:56:30.341Z,21.87
2023-04-27T08:58:58.303Z,21.87
2023-04-27T09:01:26.161Z,21.88
2023-04-27T09:03:57.630Z,21.88
2023-04-27T09:06:32.659Z,21.89
2023-04-27T09:08:59.661Z,21.88
2023-04-27T09:11:31.311Z,21.90
2023-04-27T09:14:00.206Z,21.89
2023-04-27T09:16:29.272Z,21.89
2023-04-27T09:18:57.608Z,21.91
2023-04-27T09:21:25.677Z,21.91
2023-04-27T09:23:52.674Z,21.91
2023-04-27T09:26:21.796Z,21.91
2023-04-27T09:28:54.108Z,21.90
2023-04-27T09:31:23.397Z,21.90
2023-04-27T09:33:55.902Z,21.92
2023-04-27T09:36:23.199Z,21.90
2023-04-27T09:38:51.502Z,21.91
2023-04-27T09:41:18.740Z,21.91
2023-04-27T09:43:46.263Z,21.91
2023-04-27T09:46:14.265Z,21.91
2023-04-27T09:48:41.634Z,21.91
2023-04-27T09:51:08.977Z,21.92
2023-04-27T09:53:40.847Z,21.92
2023-04-27T09:56:48.620Z,21.92
2023-04-27T09:59:55.478Z,21.91
2023-04-27T10:02:25.704Z,21.88
2023-04-27T10:05:36.045Z,21.89
2023-04-27T10:08:04.952Z,21.88
2023-04-27T10:10:42.333Z,21.88
2023-04-27T10:13:08.824Z,21.88
2023-04-27T10:15:40.017Z,21.89
2023-04-27T10:18:07.232Z,21.89
2023-04-27T10:20:37.775Z,21.91
2023-04-27T10:23:04.803Z,21.90
2023-04-27T10:25:42.762Z,21.91
2023-04-27T10:28:16.301Z,21.91
2023-04-27T10:30:49.271Z,21.91
2023-04-27T10:33:18.061Z,21.91
2023-04-27T10:35:56.047Z,21.93
2023-04-27T10:38:29.089Z,21.92
2023-04-27T10:40:57.216Z,21.91
2023-04-27T10:43:28.680Z,21.92
2023-04-27T10:45:55.870Z,21.92
2023-04-27T10:48:22.439Z,21.91
2023-04-27T10:50:51.978Z,21.92
2023-04-27T10:53:24.821Z,21.92
2023-04-27T10:55:57.902Z,21.92
2023-04-27T10:58:29.872Z,21.92
2023-04-27T11:01:01.687Z,21.91
2023-04-27T11:03:28.280Z,21.91
2023-04-27T11:06:05.619Z,21.91
2023-04-27T11:08:43.833Z,21.91
2023-04-27T11:11:28.474Z,21.86
2023-04-27T11:13:56.009Z,21.84
2023-04-27T11:16:23.157Z,21.86
2023-04-27T11:18:54.758Z,21.87
2023-04-27T11:21:22.236Z,21.87
2023-04-27T11:23:49.031Z,21.88
2023-04-27T11:26:17.758Z,21.88
2023-04-27T11:28:56.875Z,21.90
2023-04-27T11:31:23.516Z,21.89
2023-04-27T11:33:51.003Z,21.90
2023-04-27T11:36:19.164Z,21.89
2023-04-27T11:38:46.132Z,21.90
2023-04-27T11:41:13.443Z,21.91
2023-04-27T11:43:47.716Z,21.92
2023-04-27T11:46:14.437Z,21.90
2023-04-27T11:48:41.348Z,21.91
2023-04-27T11:51:10.971Z,21.92
2023-04-27T11:53:39.901Z,21.93
2023-04-27T11:56:10.758Z,21.92
2023-04-27T11:58:38.955Z,21.92
2023-04-27T12:01:06.396Z,21.93
2023-04-27T12:03:33.215Z,21.93
2023-04-27T12:06:11.739Z,21.94
2023-04-27T12:08:46.537Z,21.94
2023-04-27T12:11:13.024Z,21.93
2023-04-27T12:13:39.565Z,21.93
2023-04-27T12:16:06.942Z,21.94
2023-04-27T12:18:33.604Z,21.95
2023-04-27T12:21:03.032Z,21.95
2023-04-27T12:23:29.853Z,21.94
2023-04-27T12:25:56.583Z,21.95
2023-04-27T12:28:23.439Z,21.95
2023-04-27T12:30:50.359Z,21.94
2023-04-27T12:33:17.635Z,21.95
2023-04-27T12:36:04.608Z,21.94
2023-04-27T12:38:31.242Z,21.94
2023-04-27T12:41:01.802Z,21.95
2023-04-27T12:43:28.271Z,21.95
2023-04-27T12:45:58.862Z,21.96
2023-04-27T12:48:26.379Z,21.95
2023-04-27T12:50:52.938Z,21.96
2023-04-27T12:53:24.208Z,21.97
2023-04-27T12:55:51.260Z,21.96
2023-04-27T12:58:17.760Z,21.96
2023-04-27T13:00:44.253Z,21.97
2023-04-27T13:03:11.197Z,21.97
2023-04-27T13:05:37.776Z,21.98
2023-04-27T13:08:05.570Z,21.98
2023-04-27T13:10:32.277Z,21.99
2023-04-27T13:12:59.655Z,21.99
2023-04-27T13:15:26.280Z,21.99
2023-04-27T13:17:54.333Z,22.00
2023-04-27T13:20:21.121Z,22.01
2023-04-27T13:22:48.196Z,22.01
2023-04-27T13:25:16.536Z,22.01
2023-04-27T13:27:43.072Z,22.02
2023-04-27T13:30:10.093Z,22.02
2023-04-27T13:32:36.737Z,22.02
2023-04-27T13:35:03.917Z,22.03
2023-04-27T13:37:30.437Z,22.03
2023-04-27T13:39:56.908Z,22.04
2023-04-27T13:42:29.234Z,22.04
2023-04-27T13:44:56.905Z,22.05
2023-04-27T13:47:23.450Z,22.07
2023-04-27T13:49:49.970Z,22.06
2023-04-27T13:52:16.468Z,22.06
2023-04-27T13:54:43.086Z,22.08
2023-04-27T13:57:09.534Z,22.09
2023-04-27T13:59:36.001Z,22.09
2023-04-27T14:02:03.321Z,22.09
2023-04-27T14:04:29.966Z,22.11
2023-04-27T14:06:56.615Z,22.12
2023-04-27T14:09:24.193Z,22.12
2023-04-27T14:11:56.845Z,22.12
2023-04-27T14:14:24.157Z,22.13
2023-04-27T14:16:53.610Z,22.13
2023-04-27T14:19:22.907Z,22.14
2023-04-27T14:21:50.123Z,22.14
2023-04-27T14:24:16.687Z,22.15
2023-04-27T14:26:44.259Z,22.15
2023-04-27T14:29:11.599Z,22.17
2023-04-27T14:31:39.305Z,22.17
2023-04-27T14:34:06.578Z,22.18
2023-04-27T14:36:33.457Z,22.18
2023-04-27T14:39:01.142Z,22.19
2023-04-27T14:41:28.369Z,22.18
2023-04-27T14:43:55.315Z,22.19
2023-04-27T14:46:22.138Z,22.20
2023-04-27T14:48:49.124Z,22.21
2023-04-27T14:51:16.321Z,22.20
2023-04-27T14:53:43.984Z,22.22
2023-04-27T14:56:11.201Z,22.21
2023-04-27T14:58:39.152Z,22.22
2023-04-27T15:01:07.931Z,22.23
2023-04-27T15:03:34.810Z,22.22
2023-04-27T15:06:01.946Z,22.22
2023-04-27T15:08:29.704Z,22.23
2023-04-27T15:10:59.731Z,22.23
2023-04-27T15:13:27.313Z,22.23
2023-04-27T15:15:58.569Z,22.23
2023-04-27T15:18:25.673Z,22.24
2023-04-27T15:20:55.863Z,22.26
2023-04-27T15:23:23.389Z,22.25
2023-04-27T15:25:51.794Z,22.26
2023-04-27T15:28:18.775Z,22.26
2023-04-27T15:30:45.489Z,22.27
2023-04-27T15:33:13.101Z,22.28
2023-04-27T15:35:40.486Z,22.28
2023-04-27T15:38:09.097Z,22.29
2023-04-27T15:40:36.449Z,22.30
2023-04-27T15:43:03.226Z,22.30
2023-04-27T15:45:29.801Z,22.31
2023-04-27T15:47:56.350Z,22.30
2023-04-27T15:50:23.016Z,22.31
2023-04-27T15:52:49.569Z,22.31
2023-04-27T15:55:16.575Z,22.31
2023-04-27T15:57:43.103Z,22.30
2023-04-27T16:00:10.457Z,22.30
2023-04-27T16:02:38.200Z,22.31
2023-04-27T16:05:06.389Z,22.31
2023-04-27T16:07:34.185Z,22.31
2023-04-27T16:10:00.791Z,22.31
2023-04-27T16:12:28.199Z,22.30
2023-04-27T16:14:57.339Z,22.30
2023-04-27T16:17:27.837Z,22.32
2023-04-27T16:19:54.711Z,22.30
2023-04-27T16:22:22.240Z,22.31
2023-04-27T16:24:48.905Z,22.31
2023-04-27T16:27:17.224Z,22.31
2023-04-27T16:29:43.818Z,22.30
2023-04-27T16:32:11.075Z,22.30
2023-04-27T16:34:38.149Z,22.29
2023-04-27T16:37:04.691Z,22.29
2023-04-27T16:39:31.200Z,22.29
2023-04-27T16:41:57.737Z,22.29
2023-04-27T16:44:24.219Z,22.30
2023-04-27T16:46:52.020Z,22.30
2023-04-27T16:49:18.495Z,22.30
2023-04-27T16:51:45.038Z,22.30
2023-04-27T16:54:12.688Z,22.30
2023-04-27T16:56:39.175Z,22.30
2023-04-27T16:59:05.976Z,22.30
2023-04-27T17:01:32.585Z,22.29
2023-04-27T17:04:02.297Z,22.29
2023-04-27T17:06:29.867Z,22.28
2023-04-27T17:08:57.520Z,22.28
2023-04-27T17:11:24.558Z,22.27
2023-04-27T17:13:51.066Z,22.25
2023-04-27T17:16:18.561Z,22.26
2023-04-27T17:18:48.990Z,22.25
2023-04-27T17:21:17.105Z,22.24
2023-04-27T17:23:46.436Z,22.24
2023-04-27T17:26:15.772Z,22.22
2023-04-27T17:28:42.255Z,22.22
2023-04-27T17:31:08.871Z,22.21
2023-04-27T17:33:36.010Z,22.20
2023-04-27T17:36:02.467Z,22.19
2023-04-27T17:38:28.953Z,22.19
2023-04-27T17:40:55.446Z,22.18
2023-04-27T17:43:21.897Z,22.17
2023-04-27T17:45:48.375Z,22.18
2023-04-27T17:48:14.922Z,22.17
2023-04-27T17:50:41.552Z,22.15
2023-04-27T17:53:08.015Z,22.15
2023-04-27T17:55:34.548Z,22.15
2023-04-27T17:58:03.850Z,22.15
2023-04-27T18:00:30.768Z,22.14
2023-04-27T18:02:57.452Z,22.12
2023-04-27T18:05:24.136Z,22.12
2023-04-27T18:07:51.514Z,22.12
2023-04-27T18:10:18.060Z,22.12
2023-04-27T18:17:38.227Z,22.10
2023-04-27T18:20:09.514Z,22.09
2023-04-27T18:22:39.806Z,22.11
2023-04-27T18:25:07.142Z,22.08
2023-04-27T18:27:33.564Z,22.09
2023-04-27T18:30:00.041Z,22.08
2023-04-27T18:32:26.621Z,22.06
2023-04-27T18:34:53.914Z,22.07
2023-04-27T18:37:20.571Z,22.07
2023-04-27T18:39:47.087Z,22.06
2023-04-27T18:42:13.593Z,22.06
2023-04-27T18:44:40.255Z,22.06
2023-04-27T18:47:07.882Z,22.05
2023-04-27T18:49:34.369Z,22.06
2023-04-27T18:52:00.877Z,22.05
2023-04-27T18:54:27.382Z,22.04
2023-04-27T18:56:53.951Z,22.04
2023-04-27T18:59:20.453Z,22.04
2023-04-27T19:01:47.099Z,22.04
2023-04-27T19:04:14.474Z,22.03
2023-04-27T19:06:41.172Z,22.03
2023-04-27T19:09:09.159Z,22.03
2023-04-27T19:11:35.992Z,22.02
2023-04-27T19:14:03.651Z,22.03
2023-04-27T19:16:30.332Z,22.01
2023-04-27T19:18:57.245Z,22.02
2023-04-27T19:21:23.847Z,22.02
2023-04-27T19:23:50.352Z,22.02
2023-04-27T19:26:16.842Z,22.02
2023-04-27T19:28:43.408Z,22.03
2023-04-27T19:31:10.332Z,22.01
2023-04-27T19:33:37.120Z,22.02
2023-04-27T19:36:03.909Z,22.01
2023-04-27T19:38:30.898Z,22.01
2023-04-27T19:40:57.579Z,22.01
2023-04-27T19:43:24.103Z,22.00
2023-04-27T19:45:51.179Z,22.00
2023-04-27T19:48:17.739Z,22.01
2023-04-27T19:50:44.379Z,22.00
2023-04-27T19:53:11.188Z,22.00
2023-04-27T19:55:37.891Z,22.00
2023-04-27T19:58:04.555Z,22.00
2023-04-27T20:00:31.152Z,22.01
2023-04-27T20:02:57.999Z,22.01
2023-04-27T20:05:25.100Z,22.00
2023-04-27T20:07:51.753Z,22.00
2023-04-27T20:10:18.694Z,21.99
2023-04-27T20:12:56.305Z,22.00
2023-04-27T20:15:24.193Z,21.99
2023-04-27T20:17:50.921Z,22.00
2023-04-27T20:20:18.136Z,21.99
2023-04-27T20:22:44.894Z,21.99
2023-04-27T20:25:13.917Z,21.99
2023-04-27T20:27:40.980Z,22.00
2023-04-27T20:30:08.439Z,21.99
2023-04-27T20:32:35.090Z,21.99
2023-04-27T20:35:02.545Z,21.99
2023-04-27T20:37:29.196Z,21.98
2023-04-27T20:39:55.837Z,21.98
2023-04-27T20:42:22.610Z,21.99
2023-04-27T20:44:49.256Z,21.99
2023-04-27T20:47:16.170Z,21.99
2023-04-27T20:49:42.859Z,21.99
2023-04-27T20:52:09.447Z,22.00
2023-04-27T20:54:36.259Z,21.99
2023-04-27T20:57:03.844Z,21.99
2023-04-27T20:59:30.526Z,21.98
2023-04-27T21:01:57.000Z,21.99
2023-04-27T21:04:28.113Z,21.99
2023-04-27T21:07:04.382Z,21.99
2023-04-27T21:09:31.431Z,21.98
2023-04-27T21:11:58.030Z,21.99
2023-04-27T21:14:24.533Z,21.99
2023-04-27T21:16:51.060Z,21.99
2023-04-27T21:19:17.812Z,21.99
2023-04-27T21:21:44.314Z,21.99
2023-04-27T21:24:11.060Z,21.99
2023-04-27T21:26:37.667Z,21.99
2023-04-27T21:29:05.968Z,21.99
2023-04-27T21:31:33.346Z,21.99
2023-04-27T21:34:00.040Z,21.99
2023-04-27T21:36:26.684Z,21.98
2023-04-27T21:38:53.490Z,21.99
2023-04-27T21:41:19.990Z,21.98
2023-04-27T21:43:46.704Z,21.98
2023-04-27T21:46:13.246Z,21.98
2023-04-27T21:48:39.824Z,21.98
2023-04-27T21:51:06.303Z,21.99
2023-04-27T21:53:32.815Z,21.98
2023-04-27T21:55:59.628Z,21.98
2023-04-27T21:58:26.178Z,21.98
2023-04-27T22:00:52.710Z,21.98
2023-04-27T22:03:19.331Z,21.98
2023-04-27T22:05:48.788Z,21.98
2023-04-27T22:08:17.378Z,21.98
2023-04-27T22:10:44.679Z,21.98
2023-04-27T22:13:18.764Z,21.97
2023-04-27T22:15:46.393Z,21.94
2023-04-27T22:18:14.404Z,21.92
2023-04-27T22:20:42.310Z,21.93
2023-04-27T22:23:09.514Z,21.94
2023-04-27T22:25:36.460Z,21.95
2023-04-27T22:28:02.994Z,21.95
2023-04-27T22:30:30.297Z,21.95
2023-04-27T22:32:57.631Z,21.96
2023-04-27T22:35:27.152Z,21.96
2023-04-27T22:37:55.749Z,21.96
2023-04-27T22:40:22.404Z,21.96
2023-04-27T22:42:48.840Z,21.96
2023-04-27T22:45:15.480Z,21.97
2023-04-27T22:47:44.499Z,21.96
2023-04-27T22:50:11.943Z,21.96
2023-04-27T22:52:42.098Z,21.95
2023-04-27T22:55:09.779Z,21.96
2023-04-27T22:57:36.490Z,21.96
2023-04-27T23:00:05.461Z,21.96
2023-04-27T23:02:32.249Z,21.95
2023-04-27T23:04:59.101Z,21.96
2023-04-27T23:07:25.579Z,21.96
2023-04-27T23:09:52.877Z,21.97
2023-04-27T23:12:20.714Z,21.97
2023-04-27T23:14:47.363Z,21.98
2023-04-27T23:17:15.471Z,21.98
2023-04-27T23:19:41.985Z,21.97
2023-04-27T23:22:08.502Z,21.99
2023-04-27T23:24:35.023Z,21.99
2023-04-27T23:27:01.605Z,22.00
2023-04-27T23:29:28.492Z,22.00
2023-04-27T23:31:54.962Z,22.00
2023-04-27T23:34:21.660Z,22.02
2023-04-27T23:36:48.208Z,22.02
2023-04-27T23:39:14.672Z,22.03
2023-04-27T23:41:41.242Z,22.03
2023-04-27T23:44:08.424Z,22.03
2023-04-27T23:46:35.152Z,22.03
2023-04-27T23:49:01.725Z,22.05
2023-04-27T23:51:28.228Z,22.05
2023-04-27T23:53:54.785Z,22.06
2023-04-27T23:56:23.022Z,22.06
2023-04-27T23:58:49.708Z,22.06
